Time;durP1;ratioP1;P1;durP2;ratioP2;P2;SDS_P1;SDS_P2;PMS_P1;PMS_P2;Temp;Humidity;BMP_temperature;BMP_pressure;BME280_temperature;BME280_humidity;BME280_pressure;Samples;Min_cycle;Max_cycle;Signal;HPM_P1;HPM_P2
2021/03/19 00:01:45;;;;;;;33.90;17.23;;;;;;;-2.79;76.29;95862.41;5077688;28;20059;-94
2021/03/19 00:04:11;;;;;;;36.28;16.90;;;;;;;-2.63;75.88;95888.59;5077500;28;20021;-94
2021/03/19 00:06:37;;;;;;;31.75;18.75;;;;;;;-3.00;76.32;95854.47;5077500;28;20327;-94
2021/03/19 00:09:06;;;;;;;32.15;17.83;;;;;;;-3.16;77.11;95809.69;5077321;28;20028;-94
2021/03/19 00:11:32;;;;;;;31.23;16.75;;;;;;;-3.12;75.61;95826.38;5076849;28;20040;-94
2021/03/19 00:13:58;;;;;;;26.05;14.63;;;;;;;-3.09;75.63;95843.44;5077318;28;20020;-94
2021/03/19 00:16:23;;;;;;;33.70;16.88;;;;;;;-3.14;76.08;95831.34;5077345;28;20127;-94
2021/03/19 00:18:49;;;;;;;33.40;18.10;;;;;;;-2.69;76.22;95908.75;5077308;28;20088;-94
2021/03/19 00:21:15;;;;;;;31.75;16.73;;;;;;;-3.02;76.96;95838.16;5077259;28;20027;-94
2021/03/19 00:23:41;;;;;;;30.63;16.35;;;;;;;-2.92;78.30;95848.00;5077213;28;20067;-94
2021/03/19 00:26:06;;;;;;;31.98;17.10;;;;;;;-3.01;77.00;95837.00;5077144;28;20048;-94
2021/03/19 00:28:31;;;;;;;37.80;19.02;;;;;;;-3.08;77.39;95821.84;5077005;28;20366;-95
2021/03/19 00:30:57;;;;;;;29.60;17.95;;;;;;;-3.07;76.72;95844.59;5077058;28;20062;-94
2021/03/19 00:33:22;;;;;;;25.95;16.48;;;;;;;-3.21;77.33;95826.75;5076979;28;20028;-94
2021/03/19 00:35:48;;;;;;;27.52;16.02;;;;;;;-3.20;75.90;95838.13;5076966;28;20024;-94
2021/03/19 00:38:14;;;;;;;27.40;16.10;;;;;;;-3.06;76.05;95861.31;5076811;28;20032;-94
2021/03/19 00:40:42;;;;;;;28.30;17.02;;;;;;;-3.40;76.52;95808.56;5076876;28;20173;-94
2021/03/19 00:43:10;;;;;;;25.35;15.30;;;;;;;-3.46;76.20;95821.47;5076747;28;20024;-94
2021/03/19 00:45:36;;;;;;;25.58;15.77;;;;;;;-3.40;76.39;95831.72;5076726;28;20032;-94
2021/03/19 00:48:02;;;;;;;25.45;15.80;;;;;;;-3.31;78.90;95846.09;5093722;28;20053;-95
2021/03/19 00:50:38;;;;;;;26.08;16.30;;;;;;;-2.82;78.74;95889.00;5093571;28;20025;-94
2021/03/19 00:53:05;;;;;;;25.95;16.00;;;;;;;-2.75;77.38;95889.00;5076441;28;20055;-95
2021/03/19 00:55:30;;;;;;;24.23;14.98;;;;;;;-2.92;76.86;95890.53;5076635;28;20021;-94
2021/03/19 00:57:56;;;;;;;26.27;15.73;;;;;;;-3.42;76.42;95821.44;5076583;28;20028;-94
2021/03/19 01:00:24;;;;;;;28.65;15.70;;;;;;;-3.89;76.21;95772.09;5076626;28;20024;-95
2021/03/19 01:02:49;;;;;;;28.73;16.25;;;;;;;-3.63;77.60;95826.75;5077082;28;20420;-94
2021/03/19 01:05:20;;;;;;;27.45;16.75;;;;;;;-3.31;78.30;95885.19;5093695;28;20027;-94
2021/03/19 01:07:46;;;;;;;25.88;15.55;;;;;;;-3.74;76.54;95829.38;5076506;28;20381;-94
2021/03/19 01:10:15;;;;;;;28.13;17.20;;;;;;;-3.64;77.38;95827.88;5076302;28;20025;-93
2021/03/19 01:12:42;;;;;;;26.02;16.17;;;;;;;-4.12;77.14;95783.06;5076364;28;20420;-94
2021/03/19 01:15:08;;;;;;;24.83;16.30;;;;;;;-3.42;78.17;95885.19;5076379;28;20044;-94
2021/03/19 01:17:34;;;;;;;24.67;16.33;;;;;;;-3.83;77.99;95831.66;5076224;28;20035;-95
2021/03/19 01:20:00;;;;;;;24.58;15.68;;;;;;;-4.07;76.90;95815.28;5076269;28;20115;-94
2021/03/19 01:22:27;;;;;;;24.30;15.88;;;;;;;-3.97;79.31;95814.56;5075321;28;20024;-94
2021/03/19 01:24:53;;;;;;;23.27;15.40;;;;;;;-3.74;78.29;95838.09;5076267;28;20404;-94
2021/03/19 01:27:18;;;;;;;26.75;15.95;;;;;;;-3.92;77.98;95797.50;5076157;28;20040;-95
2021/03/19 01:29:44;;;;;;;23.67;15.00;;;;;;;-3.74;76.43;95821.41;5076166;28;20027;-94
2021/03/19 01:32:09;;;;;;;23.15;15.25;;;;;;;-3.83;77.40;95813.84;5076255;28;20036;-94
2021/03/19 01:34:35;;;;;;;23.40;13.88;;;;;;;-3.63;77.42;95834.69;5076253;28;20082;-95
2021/03/19 01:37:00;;;;;;;22.65;13.43;;;;;;;-3.92;77.68;95770.97;5076314;28;20024;-94
2021/03/19 01:39:26;;;;;;;22.75;13.20;;;;;;;-3.59;78.39;95798.31;5076280;28;20021;-94
2021/03/19 01:41:54;;;;;;;22.48;13.75;;;;;;;-3.57;77.32;95791.50;5076264;28;20035;-94
2021/03/19 01:44:21;;;;;;;20.02;13.38;;;;;;;-3.17;76.78;95845.38;5076301;28;20085;-95
2021/03/19 01:47:24;;;;;;;22.55;13.98;;;;;;;-2.98;75.32;95874.22;5076096;28;20424;-95
2021/03/19 01:50:29;;;;;;;18.60;12.25;;;;;;;-3.01;75.60;95874.97;5076160;28;20122;-94
2021/03/19 01:53:32;;;;;;;20.05;12.52;;;;;;;-2.96;75.88;95882.56;5075972;28;20048;-94
2021/03/19 01:56:35;;;;;;;20.90;11.40;;;;;;;-2.78;75.16;95879.88;5076163;28;20025;-94
2021/03/19 01:59:38;;;;;;;17.60;11.10;;;;;;;-2.88;74.44;95879.88;5077697;28;20097;-94
2021/03/19 02:02:41;;;;;;;17.00;11.30;;;;;;;-2.90;75.34;95872.31;5078465;28;20029;-94
2021/03/19 02:05:44;;;;;;;18.08;11.10;;;;;;;-3.00;74.91;95867.75;5075839;28;20028;-94
2021/03/19 02:08:47;;;;;;;20.85;11.93;;;;;;;-2.93;76.27;95862.41;5075786;28;20063;-94
2021/03/19 02:11:50;;;;;;;19.77;11.27;;;;;;;-2.93;75.34;95862.41;5075972;28;20043;-94
2021/03/19 02:18:15;;;;;;;23.13;12.27;;;;;;;-2.67;76.79;95874.53;5077090;28;20031;-94
2021/03/19 02:21:18;;;;;;;19.27;12.05;;;;;;;-2.46;75.65;95863.88;5075706;28;20028;-94
2021/03/19 02:24:21;;;;;;;21.73;12.02;;;;;;;-2.69;75.58;95860.88;5075651;28;20024;-95
2021/03/19 02:27:24;;;;;;;19.80;11.73;;;;;;;-2.50;75.87;95871.13;5075656;28;20031;-94
2021/03/19 02:30:27;;;;;;;19.40;11.93;;;;;;;-2.71;74.57;95869.25;5075479;28;20063;-94
2021/03/19 02:32:52;;;;;;;20.17;12.23;;;;;;;-3.16;75.04;95818.41;5075624;28;20097;-94
2021/03/19 02:35:21;;;;;;;20.10;11.63;;;;;;;-2.99;76.12;95867.38;5079012;28;20024;-94
2021/03/19 02:37:46;;;;;;;19.10;12.23;;;;;;;-3.62;75.89;95781.25;5079250;28;20412;-95
2021/03/19 02:40:19;;;;;;;20.42;12.48;;;;;;;-3.40;75.09;95832.47;5079027;28;20025;-95
2021/03/19 02:42:44;;;;;;;20.00;11.55;;;;;;;-3.19;76.86;95866.25;5079128;28;20036;-94
2021/03/19 02:45:14;;;;;;;18.92;12.05;;;;;;;-3.63;75.68;95808.91;5079132;28;20028;-94
2021/03/19 02:47:40;;;;;;;20.63;11.93;;;;;;;-3.65;77.03;95795.25;5079058;28;20298;-94
2021/03/19 02:50:07;;;;;;;22.45;12.15;;;;;;;-3.78;77.14;95789.56;5078913;28;20025;-94
2021/03/19 02:52:36;;;;;;;24.42;13.10;;;;;;;-3.52;77.12;95824.84;5078690;28;20344;-94
2021/03/19 02:55:05;;;;;;;20.83;13.15;;;;;;;-3.85;77.53;95778.94;5078928;28;20078;-94
2021/03/19 02:57:31;;;;;;;26.67;14.18;;;;;;;-3.54;78.14;95803.22;5095987;28;20093;-91
2021/03/19 02:59:56;;;;;;;18.83;12.65;;;;;;;-3.54;77.28;95817.28;5079015;28;20017;-94
2021/03/19 03:02:22;;;;;;;19.30;12.63;;;;;;;-3.71;77.38;95802.84;5078668;28;20028;-95
2021/03/19 03:04:47;;;;;;;23.52;12.50;;;;;;;-3.75;78.08;95822.56;5078683;28;20123;-94
2021/03/19 03:07:28;;;;;;;21.98;12.00;;;;;;;-3.65;78.64;95839.63;5078661;28;20424;-94
2021/03/19 03:09:54;;;;;;;22.15;12.70;;;;;;;-3.86;78.04;95822.53;5078619;28;20320;-94
2021/03/19 03:12:20;;;;;;;19.20;12.82;;;;;;;-4.23;76.88;95775.81;5078497;28;20123;-95
2021/03/19 03:14:46;;;;;;;18.90;11.52;;;;;;;-3.57;77.69;95881.78;5095409;28;20031;-94
2021/03/19 03:17:12;;;;;;;26.88;13.05;;;;;;;-3.97;77.75;95827.81;5078469;28;20111;-94
2021/03/19 03:19:38;;;;;;;21.08;12.27;;;;;;;-3.80;78.48;95860.09;5078511;28;20025;-95
2021/03/19 03:22:04;;;;;;;16.90;12.18;;;;;;;-4.10;78.95;95809.94;5078399;28;20320;-94
2021/03/19 03:24:30;;;;;;;22.42;12.43;;;;;;;-3.60;77.46;95877.19;5078388;28;20113;-94
2021/03/19 03:26:57;;;;;;;23.67;14.02;;;;;;;-3.54;77.31;95875.69;5078540;28;20074;-94
2021/03/19 03:29:24;;;;;;;23.27;14.55;;;;;;;-4.18;76.03;95773.94;5095088;28;20051;-94
2021/03/19 03:31:50;;;;;;;21.90;14.35;;;;;;;-4.09;76.27;95788.38;5078272;28;20017;-94
2021/03/19 03:34:16;;;;;;;23.33;14.68;;;;;;;-3.88;75.82;95824.81;5078098;28;20028;-94
2021/03/19 03:36:42;;;;;;;25.25;15.90;;;;;;;-3.81;76.09;95853.25;5078114;28;20021;-94
2021/03/19 03:39:13;;;;;;;22.50;15.52;;;;;;;-3.73;75.47;95878.66;5094665;28;20037;-94
2021/03/19 03:41:40;;;;;;;21.80;14.43;;;;;;;-3.71;76.04;95885.13;5078172;28;20028;-94
2021/03/19 03:44:05;;;;;;;28.48;15.73;;;;;;;-4.15;75.87;95834.22;5077976;28;20123;-94
2021/03/19 03:46:31;;;;;;;21.05;15.07;;;;;;;-4.14;74.87;95839.13;5077083;28;20056;-94
2021/03/19 03:48:57;;;;;;;20.92;14.68;;;;;;;-3.93;74.76;95864.22;5077792;28;20305;-94
2021/03/19 03:51:26;;;;;;;23.67;15.40;;;;;;;-4.45;75.00;95798.09;5077676;28;20031;-94
2021/03/19 03:53:52;;;;;;;26.70;17.35;;;;;;;-4.25;76.22;95833.81;5077833;28;20024;-94
2021/03/19 03:56:17;;;;;;;24.55;16.10;;;;;;;-4.32;74.34;95833.00;5077720;28;20035;-94
2021/03/19 03:58:44;;;;;;;23.75;16.63;;;;;;;-4.14;75.02;95863.03;5077668;28;20028;-94
2021/03/19 04:01:10;;;;;;;26.60;17.05;;;;;;;-4.20;76.07;95856.56;5077635;28;20025;-94
2021/03/19 04:03:36;;;;;;;28.50;16.77;;;;;;;-4.48;76.73;95807.56;5077550;28;20081;-94
2021/03/19 04:06:02;;;;;;;24.35;15.68;;;;;;;-3.95;77.96;95877.84;5077558;28;20123;-94
2021/03/19 04:08:29;;;;;;;25.98;15.63;;;;;;;-4.08;76.56;95861.53;5077342;28;20028;-94
2021/03/19 04:10:58;;;;;;;26.48;15.68;;;;;;;-4.43;76.27;95817.03;5077241;28;20439;-94
2021/03/19 04:13:26;;;;;;;24.05;15.32;;;;;;;-4.58;75.60;95799.53;5077394;28;20052;-94
2021/03/19 04:15:51;;;;;;;21.02;14.88;;;;;;;-4.43;75.29;95832.19;5077371;28;20028;-94
2021/03/19 04:18:18;;;;;;;24.58;15.77;;;;;;;-4.06;77.14;95882.38;5077345;28;20324;-95
2021/03/19 04:20:46;;;;;;;27.77;16.13;;;;;;;-4.06;76.25;95885.03;5077130;28;20020;-94
2021/03/19 04:23:12;;;;;;;24.83;16.13;;;;;;;-4.70;76.08;95813.88;5077170;28;20404;-94
2021/03/19 04:25:38;;;;;;;28.00;15.77;;;;;;;-4.18;76.25;95895.97;5077084;28;20400;-94
2021/03/19 04:28:10;;;;;;;27.88;16.02;;;;;;;-4.75;76.66;95787.75;5077080;28;20036;-94
2021/03/19 04:30:40;;;;;;;28.25;16.58;;;;;;;-4.10;78.13;95885.03;5093832;28;20416;-94
2021/03/19 04:33:15;;;;;;;33.15;17.98;;;;;;;-4.64;78.06;95815.06;5076984;28;20024;-94
2021/03/19 04:35:41;;;;;;;29.90;17.30;;;;;;;-4.53;76.73;95833.66;5076903;28;20045;-94
2021/03/19 04:38:10;;;;;;;30.20;18.05;;;;;;;-4.18;77.35;95886.13;5076905;28;20405;-94
2021/03/19 04:40:39;;;;;;;32.17;18.52;;;;;;;-4.14;76.14;95881.59;5076756;28;20082;-94
2021/03/19 04:43:04;;;;;;;35.25;19.98;;;;;;;-4.41;78.20;95835.25;5076810;28;20040;-93
2021/03/19 04:45:30;;;;;;;34.38;20.50;;;;;;;-4.13;78.16;95885.75;5093754;28;20138;-94
2021/03/19 04:47:56;;;;;;;42.45;22.60;;;;;;;-4.41;78.57;95836.00;5077003;28;20103;-94
2021/03/19 04:50:23;;;;;;;40.05;21.35;;;;;;;-4.31;78.06;95853.88;5093741;28;20372;-94
2021/03/19 04:52:50;;;;;;;39.47;20.90;;;;;;;-4.02;78.59;95891.09;5076617;28;20060;-95
2021/03/19 04:55:16;;;;;;;41.60;20.95;;;;;;;-4.50;78.37;95815.13;5093547;28;20025;-95
2021/03/19 04:57:42;;;;;;;45.30;22.65;;;;;;;-3.87;78.55;95881.31;5076618;28;20035;-94
2021/03/19 05:00:10;;;;;;;42.85;21.58;;;;;;;-4.51;78.93;95781.78;5093726;28;20021;-94
2021/03/19 05:02:39;;;;;;;45.97;23.30;;;;;;;-3.89;77.77;95881.66;5076610;28;20321;-94
2021/03/19 05:05:10;;;;;;;37.53;22.88;;;;;;;-3.91;77.50;95883.94;5076627;28;20074;-94
2021/03/19 05:07:35;;;;;;;;;;;;;;;-3.82;79.07;95883.59;5076927;28;20340;-94
2021/03/19 05:10:01;;;;;;;21.80;13.10;;;;;;;-4.27;77.16;95822.78;5076461;28;19916;-94
2021/03/19 05:12:26;;;;;;;20.02;12.32;;;;;;;-4.30;76.89;95804.22;5076417;28;20271;-94
2021/03/19 05:14:52;;;;;;;17.67;11.73;;;;;;;-4.00;76.47;95835.75;5076616;28;20435;-95
2021/03/19 05:17:17;;;;;;;20.33;12.25;;;;;;;-4.05;76.72;95839.56;5076470;28;20413;-96
2021/03/19 05:19:43;;;;;;;24.27;14.00;;;;;;;-4.25;76.61;95801.22;5076372;28;20313;-95
2021/03/19 05:22:09;;;;;;;29.15;19.88;;;;;;;-3.95;77.52;95828.19;5076379;28;20128;-95
2021/03/19 05:24:35;;;;;;;25.70;15.55;;;;;;;-3.69;78.01;95848.34;5093159;28;20479;-95
2021/03/19 05:27:01;;;;;;;28.80;15.30;;;;;;;-3.34;75.96;95901.91;5076226;28;20183;-96
2021/03/19 05:29:26;;;;;;;27.92;16.77;;;;;;;-4.04;74.44;95795.97;5076322;28;20119;-95
2021/03/19 05:31:52;;;;;;;28.35;16.33;;;;;;;-3.93;72.50;95793.34;5076732;28;20082;-95
2021/03/19 05:34:17;;;;;;;25.95;14.70;;;;;;;-3.44;73.25;95866.97;5076269;28;20039;-95
2021/03/19 05:36:43;;;;;;;22.77;15.20;;;;;;;-3.15;74.88;95896.22;5076342;28;20419;-95
2021/03/19 05:39:10;;;;;;;34.88;18.33;;;;;;;-3.10;73.50;95901.16;5076110;28;20309;-95
2021/03/19 05:41:38;;;;;;;35.85;18.25;;;;;;;-3.41;74.83;95857.47;5076346;28;20112;-96
2021/03/19 05:44:05;;;;;;;25.33;15.88;;;;;;;-3.09;74.92;95901.91;5076002;28;20028;-95
2021/03/19 05:46:53;;;;;;;33.80;17.67;;;;;;;-3.00;75.15;95895.09;5076009;28;20060;-94
2021/03/19 05:49:18;;;;;;;38.33;19.80;;;;;;;-2.88;74.19;95904.56;5075903;28;20028;-95
2021/03/19 05:51:46;;;;;;;35.85;19.55;;;;;;;-3.33;74.93;95842.31;5076461;28;20140;-94
2021/03/19 05:54:21;;;;;;;30.02;16.33;;;;;;;-2.79;74.64;95901.53;5077571;28;20431;-95
2021/03/19 05:56:52;;;;;;;25.45;15.45;;;;;;;-2.75;74.95;95915.59;5076912;28;20085;-95
2021/03/19 05:59:17;;;;;;;19.00;13.93;;;;;;;-3.08;73.91;95864.34;5075778;28;20097;-95
2021/03/19 06:01:42;;;;;;;24.13;14.60;;;;;;;-3.40;75.41;95823.75;5076199;28;20092;-95
2021/03/19 06:04:18;;;;;;;23.63;15.98;;;;;;;-3.33;73.38;95813.09;5075783;28;20028;-95
2021/03/19 06:07:13;;;;;;;33.58;17.15;;;;;;;-2.55;73.71;95918.63;5075805;28;20029;-95
2021/03/19 06:09:41;;;;;;;27.75;15.63;;;;;;;-3.00;73.13;95849.16;5081199;28;20416;-94
2021/03/19 06:12:18;;;;;;;27.55;15.45;;;;;;;-2.54;74.42;95920.13;5100092;28;20028;-93
2021/03/19 06:14:51;;;;;;;30.52;17.35;;;;;;;-3.14;73.83;95830.53;5086936;28;20035;-95
2021/03/19 06:17:44;;;;;;;25.02;14.95;;;;;;;-2.64;74.11;95903.81;5098170;28;20408;-95
2021/03/19 06:20:19;;;;;;;26.30;16.30;;;;;;;-2.55;74.89;95905.31;5101093;28;20107;-94
2021/03/19 06:22:49;;;;;;;30.70;16.27;;;;;;;-2.93;73.97;95847.25;5060430;28;20032;-94
2021/03/19 06:28:39;;;;;;;24.77;15.27;;;;;;;-2.88;74.25;95840.00;5081167;28;20043;-94
2021/03/19 06:31:16;;;;;;;23.85;14.65;;;;;;;-3.05;73.11;95837.00;5080479;28;20028;-94
2021/03/19 06:33:42;;;;;;;24.70;16.17;;;;;;;-2.87;73.89;95847.63;5079683;28;20108;-94
2021/03/19 06:36:19;;;;;;;25.63;15.93;;;;;;;-2.31;74.60;95917.81;5079742;28;20047;-94
2021/03/19 06:39:04;;;;;;;28.42;16.58;;;;;;;-2.46;73.34;95917.06;5079963;28;20098;-93
2021/03/19 06:41:33;;;;;;;27.70;16.88;;;;;;;-2.25;73.96;95926.91;5082679;28;20032;-92
2021/03/19 06:44:21;;;;;;;29.38;17.98;;;;;;;-2.19;74.18;95921.94;5080781;28;20111;-94
2021/03/19 06:46:49;;;;;;;26.08;17.25;;;;;;;-2.26;73.46;95908.69;5074520;28;20020;-94
2021/03/19 06:49:16;;;;;;;30.20;18.35;;;;;;;-2.18;74.58;95924.25;5076733;28;20036;-94
2021/03/19 06:51:48;;;;;;;23.33;16.70;;;;;;;-2.55;72.84;95852.13;5081985;28;20027;-94
2021/03/19 06:54:17;;;;;;;30.20;19.60;;;;;;;-2.16;72.96;95918.53;5080392;28;20032;-94
2021/03/19 06:57:07;;;;;;;31.15;19.52;;;;;;;-2.08;72.95;95912.03;5081119;28;20025;-95
2021/03/19 06:59:44;;;;;;;26.48;18.42;;;;;;;-2.07;73.38;95910.16;5080826;28;20127;-94
2021/03/19 07:02:52;;;;;;;25.67;17.98;;;;;;;-2.27;72.79;95883.22;5103465;28;20032;-94
2021/03/19 07:05:39;;;;;;;28.58;19.30;;;;;;;-1.99;72.00;95920.38;5094379;28;20036;-95
2021/03/19 07:08:24;;;;;;;28.35;17.42;;;;;;;-1.94;72.24;95919.97;5102008;28;20035;-92
2021/03/19 07:11:10;;;;;;;32.28;19.70;;;;;;;-1.92;73.47;95914.25;5100952;28;20114;-93
2021/03/19 07:14:02;;;;;;;32.67;21.63;;;;;;;-1.97;72.43;95919.97;5117361;28;20061;-94
2021/03/19 07:16:33;;;;;;;34.22;21.60;;;;;;;-1.85;71.67;95906.25;5100976;28;20404;-93
2021/03/19 07:19:15;;;;;;;39.75;24.70;;;;;;;-1.80;73.18;95918.41;5100762;28;20052;-93
2021/03/19 07:22:02;;;;;;;39.67;22.83;;;;;;;-1.75;73.79;95920.69;5078822;28;20063;-93
2021/03/19 07:24:52;;;;;;;36.65;23.48;;;;;;;-1.69;74.65;95922.53;5080796;28;20032;-92
2021/03/19 07:27:38;;;;;;;38.05;24.33;;;;;;;-1.63;74.02;95914.91;5079612;28;20119;-94
2021/03/19 07:30:35;;;;;;;37.83;25.48;;;;;;;-2.02;73.76;95851.19;5079249;28;20031;-93
2021/03/19 07:33:25;;;;;;;36.50;21.80;;;;;;;-1.49;73.34;95917.50;5079924;28;20032;-94
2021/03/19 07:36:00;;;;;;;34.22;20.48;;;;;;;-1.45;74.76;95915.56;5079175;28;20028;-94
2021/03/19 07:38:45;;;;;;;42.70;22.90;;;;;;;-1.40;71.88;95917.81;5085928;28;20032;-94
2021/03/19 07:41:47;;;;;;;36.78;22.30;;;;;;;-1.33;72.43;95922.38;5099671;28;20486;-93
2021/03/19 07:44:51;;;;;;;35.08;22.80;;;;;;;-1.22;70.59;95919.63;5095049;28;20020;-93
2021/03/19 07:47:32;;;;;;;39.63;25.58;;;;;;;-1.16;70.61;95918.06;5079340;28;20035;-93
2021/03/19 07:50:04;;;;;;;31.98;20.40;;;;;;;-1.11;66.94;95921.06;5079647;28;20115;-93
2021/03/19 07:52:48;;;;;;;29.85;19.27;;;;;;;-0.99;67.55;95913.75;5080177;28;20123;-95
2021/03/19 07:55:17;;;;;;;25.65;18.58;;;;;;;-1.22;69.44;95869.75;5081971;28;20074;-93
2021/03/19 07:57:53;;;;;;;22.92;16.55;;;;;;;-1.27;68.97;95856.84;5079737;28;20024;-90
2021/03/19 08:00:22;;;;;;;24.63;16.52;;;;;;;-0.77;69.40;95912.44;5079908;28;20098;-93
2021/03/19 08:03:03;;;;;;;24.85;15.27;;;;;;;-0.70;63.57;95924.94;5079422;28;20024;-93
2021/03/19 08:05:42;;;;;;;22.73;15.00;;;;;;;-0.58;63.77;95919.16;5079558;28;20063;-95
2021/03/19 08:08:16;;;;;;;21.27;14.38;;;;;;;-0.57;63.74;95915.31;5079549;28;20495;-93
2021/03/19 08:10:54;;;;;;;29.10;15.88;;;;;;;-0.77;63.97;95858.34;5080240;28;20118;-93
2021/03/19 08:13:33;;;;;;;23.42;14.43;;;;;;;-0.33;61.70;95914.31;5098115;28;20066;-91
2021/03/19 08:16:10;;;;;;;22.95;14.75;;;;;;;-0.16;62.94;95926.00;5079993;28;20029;-93
2021/03/19 08:18:39;;;;;;;26.52;16.50;;;;;;;-0.06;62.99;95919.75;5079180;28;20043;-94
2021/03/19 08:21:23;;;;;;;27.83;17.75;;;;;;;-0.03;64.77;95932.31;5078012;28;20025;-93
2021/03/19 08:24:14;;;;;;;25.50;17.15;;;;;;;0.09;63.63;95925.72;5078587;28;20024;-92
2021/03/19 08:27:00;;;;;;;20.27;14.23;;;;;;;0.20;60.53;95902.28;5079737;28;20025;-93
2021/03/19 08:29:44;;;;;;;20.88;13.73;;;;;;;0.31;58.86;95925.47;5078171;28;20131;-92
2021/03/19 08:32:18;;;;;;;27.88;19.00;;;;;;;0.36;60.57;95922.34;5083178;28;20056;-93
2021/03/19 08:34:50;;;;;;;28.83;19.27;;;;;;;0.40;57.88;95921.16;5076803;28;20332;-92
2021/03/19 08:37:27;;;;;;;26.05;15.95;;;;;;;0.67;56.58;95931.88;5077188;28;20029;-92
2021/03/19 08:39:54;;;;;;;15.05;10.63;;;;;;;0.40;54.40;95893.66;5076666;28;20024;-93
2021/03/19 08:42:33;;;;;;;14.15;10.18;;;;;;;-0.01;55.20;95846.47;5079865;28;20044;-93
2021/03/19 08:45:03;;;;;;;13.82;10.48;;;;;;;0.30;54.74;95881.19;5077899;28;20021;-93
2021/03/19 08:47:46;;;;;;;14.85;10.88;;;;;;;0.67;55.61;95929.19;5078501;28;20074;-92
2021/03/19 08:50:33;;;;;;;21.35;11.15;;;;;;;0.65;55.08;95930.75;5077202;28;20105;-93
2021/03/19 08:53:19;;;;;;;15.98;10.50;;;;;;;0.38;54.17;95912.03;5076864;28;20101;-93
2021/03/19 08:56:03;;;;;;;13.73;9.73;;;;;;;0.57;54.18;95934.69;5077270;28;20035;-93
2021/03/19 08:58:28;;;;;;;18.02;10.75;;;;;;;0.54;54.48;95940.84;5085411;28;20024;-92
2021/03/19 09:01:05;;;;;;;14.93;10.52;;;;;;;0.67;52.72;95933.78;5078472;28;20020;-92
2021/03/19 09:03:43;;;;;;;15.23;9.80;;;;;;;0.70;51.73;95933.00;5077585;28;20016;-92
2021/03/19 09:06:12;;;;;;;19.13;10.68;;;;;;;0.32;55.27;95876.97;5077144;28;20422;-93
2021/03/19 09:08:47;;;;;;;14.75;10.10;;;;;;;0.78;54.81;95939.75;5077233;28;20555;-92
2021/03/19 09:11:20;;;;;;;14.15;10.02;;;;;;;0.88;54.18;95928.13;5078376;28;20025;-91
2021/03/19 09:14:06;;;;;;;22.42;10.50;;;;;;;0.76;53.44;95910.75;5075638;28;20028;-91
2021/03/19 09:16:44;;;;;;;14.27;8.57;;;;;;;1.21;52.33;95937.19;5073647;28;20047;-93
2021/03/19 09:19:28;;;;;;;13.48;8.00;;;;;;;1.42;50.13;95936.09;5067512;28;20037;-92
2021/03/19 09:22:15;;;;;;;12.60;7.63;;;;;;;1.52;48.17;95937.84;5076740;28;20065;-93
2021/03/19 09:24:41;;;;;;;12.43;8.48;;;;;;;1.34;49.91;95894.56;5074987;28;20040;-92
2021/03/19 09:27:30;;;;;;;12.85;8.10;;;;;;;1.67;48.57;95916.19;5087803;28;20032;-92
2021/03/19 09:30:22;;;;;;;9.88;7.70;;;;;;;1.46;47.89;95879.84;5082816;28;20405;-91
2021/03/19 09:32:53;;;;;;;15.05;8.27;;;;;;;1.56;48.35;95868.19;5095351;28;20111;-92
2021/03/19 09:35:42;;;;;;;10.85;6.97;;;;;;;1.63;43.35;95934.25;5075994;28;20420;-93
2021/03/19 09:38:33;;;;;;;15.98;7.25;;;;;;;1.52;45.18;95927.16;5077121;28;20024;-93
2021/03/19 09:41:04;;;;;;;10.68;7.57;;;;;;;1.57;44.15;95926.69;5075754;28;20029;-92
2021/03/19 09:43:48;;;;;;;11.85;7.30;;;;;;;1.61;46.05;95923.94;5076116;28;20024;-91
2021/03/19 09:46:29;;;;;;;13.45;7.28;;;;;;;1.72;47.43;95919.16;5075434;28;20115;-89
2021/03/19 09:49:00;;;;;;;13.60;7.72;;;;;;;1.58;42.08;95911.38;5079631;28;20056;-92
2021/03/19 09:51:44;;;;;;;19.35;8.57;;;;;;;1.70;45.16;95883.22;5088946;28;20032;-90
2021/03/19 09:54:25;;;;;;;11.80;7.38;;;;;;;1.98;42.94;95916.78;5080954;28;20416;-92
2021/03/19 09:56:55;;;;;;;11.63;7.05;;;;;;;1.66;44.16;95856.53;5088022;28;20409;-92
2021/03/19 09:59:24;;;;;;;13.88;7.05;;;;;;;2.17;43.04;95916.03;5071004;28;20021;-91
2021/03/19 10:01:50;;;;;;;15.60;6.80;;;;;;;1.50;40.83;95846.50;5079463;28;20029;-92
2021/03/19 10:04:45;;;;;;;8.00;6.47;;;;;;;2.05;42.78;95919.31;5079872;28;20327;-91
2021/03/19 10:07:16;;;;;;;9.77;6.70;;;;;;;2.13;43.65;95911.91;5080779;28;20048;-93
2021/03/19 10:09:55;;;;;;;11.95;7.00;;;;;;;1.73;43.02;95893.13;5095136;28;20030;-92
2021/03/19 10:12:33;;;;;;;16.23;8.27;;;;;;;1.89;43.07;95903.19;5079592;28;20039;-92
2021/03/19 10:15:20;;;;;;;10.38;6.40;;;;;;;1.93;42.23;95885.88;5087644;28;20365;-93
2021/03/19 10:17:54;;;;;;;11.70;7.30;;;;;;;2.31;43.64;95904.28;5081662;28;20021;-92
2021/03/19 10:20:30;;;;;;;8.18;6.63;;;;;;;2.34;40.91;95904.22;5080420;28;20021;-92
2021/03/19 10:23:10;;;;;;;9.63;6.97;;;;;;;2.30;40.39;95908.13;5059879;28;20106;-92
2021/03/19 10:25:41;;;;;;;18.48;7.90;;;;;;;1.99;44.63;95912.94;5079031;28;20052;-92
2021/03/19 10:28:07;;;;;;;11.30;6.97;;;;;;;2.00;45.35;95909.84;5092931;28;20056;-93
2021/03/19 10:30:53;;;;;;;12.93;8.00;;;;;;;1.93;44.03;95919.94;5064588;28;20053;-93
2021/03/19 10:33:20;;;;;;;9.88;7.18;;;;;;;1.88;42.65;95915.06;5078945;28;20029;-93
2021/03/19 10:35:51;;;;;;;11.32;7.88;;;;;;;1.69;44.26;95884.41;5079111;28;20074;-92
2021/03/19 10:38:48;;;;;;;20.30;8.18;;;;;;;2.00;45.09;95925.16;5079304;28;20119;-92
2021/03/19 10:41:28;;;;;;;17.55;9.48;;;;;;;2.11;45.81;95877.50;5072735;28;20416;-91
2021/03/19 10:44:09;;;;;;;13.98;8.18;;;;;;;2.10;44.53;95843.81;5078880;28;20115;-93
2021/03/19 10:46:39;;;;;;;9.40;7.05;;;;;;;2.61;44.14;95927.41;5078649;28;20454;-92
2021/03/19 10:49:18;;;;;;;10.88;7.88;;;;;;;3.02;44.01;95918.84;5085880;28;20051;-93
2021/03/19 10:51:58;;;;;;;12.10;8.55;;;;;;;2.88;43.98;95884.28;5081575;28;20479;-93
2021/03/19 10:54:27;;;;;;;15.50;8.57;;;;;;;2.38;41.81;95873.88;5078324;28;20305;-93
2021/03/19 10:56:56;;;;;;;12.13;8.52;;;;;;;2.04;42.91;95846.25;5078817;28;20060;-92
2021/03/19 10:59:28;;;;;;;11.48;7.63;;;;;;;2.65;43.26;95920.03;5077776;28;20434;-93
2021/03/19 11:02:07;;;;;;;17.00;7.72;;;;;;;2.67;42.92;95925.75;5078892;28;20107;-92
2021/03/19 11:04:38;;;;;;;14.63;7.57;;;;;;;2.58;42.30;95933.59;5079515;28;20289;-92
2021/03/19 11:07:16;;;;;;;8.93;6.30;;;;;;;2.43;41.00;95911.69;5094229;28;20062;-92
2021/03/19 11:10:10;;;;;;;9.25;6.28;;;;;;;2.45;40.68;95901.31;5094664;28;20032;-92
2021/03/19 11:12:38;;;;;;;8.15;6.30;;;;;;;2.85;38.46;95912.69;5087002;28;20024;-92
2021/03/19 11:15:12;;;;;;;6.28;5.13;;;;;;;3.28;38.71;95914.41;5082886;28;20488;-92
2021/03/19 11:17:38;;;;;;;9.20;5.88;;;;;;;3.55;37.83;95914.13;5080481;28;20420;-92
2021/03/19 11:20:07;;;;;;;7.60;6.05;;;;;;;3.85;39.87;95888.06;5079219;28;20424;-93
2021/03/19 11:22:36;;;;;;;8.07;6.15;;;;;;;4.50;39.79;95900.50;5086551;28;20040;-92
2021/03/19 11:25:32;;;;;;;9.27;6.68;;;;;;;4.71;39.59;95906.00;5085221;28;20331;-93
2021/03/19 11:27:58;;;;;;;11.30;6.63;;;;;;;4.25;38.69;95879.69;5074768;28;20040;-92
2021/03/19 11:30:23;;;;;;;15.32;5.97;;;;;;;4.06;39.01;95910.94;5073009;28;20036;-93
2021/03/19 11:33:00;;;;;;;7.60;5.85;;;;;;;3.54;39.34;95850.88;5084397;28;20032;-92
2021/03/19 11:35:25;;;;;;;13.52;8.07;;;;;;;3.87;38.85;95848.84;5074646;28;20048;-91
2021/03/19 11:37:51;;;;;;;11.73;6.35;;;;;;;3.91;39.42;95872.94;5081953;28;20363;-93
2021/03/19 11:40:22;;;;;;;8.45;6.38;;;;;;;4.29;38.47;95902.59;5077808;28;20471;-92
2021/03/19 11:42:53;;;;;;;10.20;6.30;;;;;;;3.59;37.84;95879.88;5078748;28;20120;-91
2021/03/19 11:45:21;;;;;;;6.30;5.03;;;;;;;3.64;35.53;95900.88;5081896;28;20026;-92
2021/03/19 11:47:58;;;;;;;7.40;5.32;;;;;;;3.59;39.94;95895.25;5077635;28;20119;-92
2021/03/19 11:50:25;;;;;;;7.45;5.72;;;;;;;3.78;38.56;95907.03;5067096;28;20029;-92
2021/03/19 11:52:59;;;;;;;6.60;5.45;;;;;;;3.11;37.06;95880.69;5077493;28;20139;-92
2021/03/19 11:56:02;;;;;;;7.80;5.97;;;;;;;3.42;37.76;95911.38;5077404;28;20032;-93
2021/03/19 11:58:31;;;;;;;6.93;5.35;;;;;;;3.27;37.27;95866.50;5069920;28;20032;-94
2021/03/19 12:01:00;;;;;;;9.02;6.20;;;;;;;3.55;38.51;95913.38;5078718;28;20027;-94